Time;durP1;ratioP1;P1;durP2;ratioP2;P2;SDS_P1;SDS_P2;PMS_P1;PMS_P2;Temp;Humidity;BMP_temperature;BMP_pressure;BME280_temperature;BME280_humidity;BME280_pressure;Samples;Min_cycle;Max_cycle;Signal;HPM_P1;HPM_P2
2022/07/07 00:01:12;;;;;;;;;;;17.10;99.90;;;;;;5026395;28;19925;-73
2022/07/07 00:03:38;;;;;;;;;;;17.10;99.90;;;;;;5004117;28;19952;-74
2022/07/07 00:06:03;;;;;;;;;;;17.10;99.90;;;;;;5032590;28;20350;-73
2022/07/07 00:08:29;;;;;;;;;;;17.10;99.90;;;;;;5049107;28;20048;-73
2022/07/07 00:10:56;;;;;;;;;;;17.10;99.90;;;;;;5049274;28;20325;-74
2022/07/07 00:13:21;;;;;;;;;;;17.10;99.90;;;;;;5022157;28;20031;-73
2022/07/07 00:15:47;;;;;;;;;;;17.10;99.90;;;;;;5030047;28;20185;-74
2022/07/07 00:18:13;;;;;;;;;;;17.10;99.90;;;;;;5049224;28;20373;-73
2022/07/07 00:20:38;;;;;;;;;;;17.10;99.90;;;;;;5040104;28;19917;-73
2022/07/07 00:23:04;;;;;;;;;;;17.10;99.90;;;;;;5022417;28;20033;-73
2022/07/07 00:25:30;;;;;;;;;;;17.10;99.90;;;;;;5010428;28;19916;-73
2022/07/07 00:27:55;;;;;;;;;;;17.10;99.90;;;;;;5029029;28;19967;-73
2022/07/07 00:30:21;;;;;;;;;;;17.10;99.90;;;;;;5012417;28;20310;-73
2022/07/07 00:32:46;;;;;;;;;;;17.00;99.90;;;;;;5022677;28;19917;-73
2022/07/07 00:35:12;;;;;;;;;;;16.90;99.90;;;;;;5008465;28;19927;-73
2022/07/07 00:37:37;;;;;;;;;;;16.80;99.90;;;;;;5028789;28;20384;-72
2022/07/07 00:40:03;;;;;;;;;;;16.80;99.90;;;;;;5010055;28;19925;-73
2022/07/07 00:42:29;;;;;;;;;;;16.60;99.90;;;;;;5027798;28;19917;-72
2022/07/07 00:44:54;;;;;;;;;;;16.60;99.90;;;;;;5010950;28;20301;-73
2022/07/07 00:47:20;;;;;;;;;;;16.50;99.90;;;;;;5010993;28;20328;-72
2022/07/07 00:49:46;;;;;;;;;;;16.50;99.90;;;;;;5003795;28;19917;-73
2022/07/07 00:52:11;;;;;;;;;;;16.50;99.90;;;;;;5011553;28;19924;-72
2022/07/07 00:54:37;;;;;;;;;;;16.50;99.90;;;;;;5028180;28;19917;-72
2022/07/07 00:57:03;;;;;;;;;;;16.40;99.90;;;;;;5008768;28;20088;-73
2022/07/07 00:59:29;;;;;;;;;;;16.40;99.90;;;;;;5024521;28;19924;-72
2022/07/07 01:01:55;;;;;;;;;;;16.40;99.90;;;;;;5028788;28;19921;-72
2022/07/07 01:04:21;;;;;;;;;;;16.40;99.90;;;;;;5025740;28;19929;-72
2022/07/07 01:06:46;;;;;;;;;;;16.30;99.90;;;;;;4991182;28;19920;-72
2022/07/07 01:09:12;;;;;;;;;;;16.40;99.90;;;;;;5005249;28;20285;-72
2022/07/07 01:11:45;;;;;;;;;;;16.40;99.90;;;;;;5026510;28;19916;-73
2022/07/07 01:14:10;;;;;;;;;;;16.30;99.90;;;;;;4995796;28;20009;-72
2022/07/07 01:16:36;;;;;;;;;;;16.30;99.90;;;;;;5018633;28;19970;-72
2022/07/07 01:19:01;;;;;;;;;;;16.40;99.90;;;;;;5010061;28;20135;-72
2022/07/07 01:21:29;;;;;;;;;;;16.30;99.90;;;;;;5010025;28;19991;-72
2022/07/07 01:23:55;;;;;;;;;;;16.30;99.90;;;;;;5009768;28;19920;-72
2022/07/07 01:26:20;;;;;;;;;;;16.30;99.90;;;;;;5027629;28;19923;-72
2022/07/07 01:28:46;;;;;;;;;;;16.30;99.90;;;;;;5027562;28;19996;-72
2022/07/07 01:31:11;;;;;;;;;;;16.40;99.90;;;;;;5028274;28;19949;-72
2022/07/07 01:33:37;;;;;;;;;;;16.30;99.90;;;;;;5009050;28;20031;-72
2022/07/07 01:36:02;;;;;;;;;;;16.30;99.90;;;;;;5002085;28;20399;-72
2022/07/07 01:38:28;;;;;;;;;;;16.40;99.90;;;;;;5047074;28;20011;-72
2022/07/07 01:40:53;;;;;;;;;;;16.40;99.90;;;;;;5029402;28;19917;-72
2022/07/07 01:43:19;;;;;;;;;;;16.40;99.90;;;;;;5047887;28;20440;-72
2022/07/07 01:45:44;;;;;;;;;;;16.40;99.90;;;;;;5021029;28;19920;-72
2022/07/07 01:48:10;;;;;;;;;;;16.40;99.90;;;;;;5047375;28;20428;-72
2022/07/07 01:50:35;;;;;;;;;;;16.40;99.90;;;;;;5041900;28;19964;-72
2022/07/07 01:53:01;;;;;;;;;;;16.50;99.90;;;;;;5022418;28;19918;-72
2022/07/07 01:55:26;;;;;;;;;;;16.40;99.90;;;;;;5015500;28;20009;-72
2022/07/07 01:57:52;;;;;;;;;;;16.40;99.90;;;;;;5009128;28;20172;-72
2022/07/07 02:00:18;;;;;;;;;;;16.40;99.90;;;;;;5010502;28;20315;-73
2022/07/07 02:02:43;;;;;;;;;;;16.40;99.90;;;;;;5019763;28;19917;-73
2022/07/07 02:05:09;;;;;;;;;;;16.40;99.90;;;;;;5024088;28;19921;-73
2022/07/07 02:07:35;;;;;;;;;;;16.40;99.90;;;;;;5027005;28;20008;-73
2022/07/07 02:10:01;;;;;;;;;;;16.30;99.90;;;;;;5009411;28;19925;-73
2022/07/07 02:12:26;;;;;;;;;;;16.30;99.90;;;;;;5001605;28;19940;-73
2022/07/07 02:14:52;;;;;;;;;;;16.40;99.90;;;;;;5008977;28;19939;-72
2022/07/07 02:17:17;;;;;;;;;;;16.40;99.90;;;;;;5027340;28;19928;-73
2022/07/07 02:19:43;;;;;;;;;;;16.40;99.90;;;;;;5007478;28;19921;-72
2022/07/07 02:22:09;;;;;;;;;;;16.30;99.90;;;;;;5009278;28;19956;-72
2022/07/07 02:24:34;;;;;;;;;;;16.30;99.90;;;;;;5007900;28;19917;-72
2022/07/07 02:27:00;;;;;;;;;;;16.30;99.90;;;;;;5008577;28;19947;-72
2022/07/07 02:29:25;;;;;;;;;;;16.30;99.90;;;;;;5007163;28;20408;-72
2022/07/07 02:31:51;;;;;;;;;;;16.30;99.90;;;;;;5045922;28;19996;-72
2022/07/07 02:34:16;;;;;;;;;;;16.30;99.90;;;;;;5036635;28;19962;-72
2022/07/07 02:36:42;;;;;;;;;;;16.20;99.90;;;;;;5006669;28;19922;-72
2022/07/07 02:39:08;;;;;;;;;;;16.30;99.90;;;;;;5007069;28;19917;-72
2022/07/07 02:41:33;;;;;;;;;;;16.30;99.90;;;;;;5005741;28;20003;-73
2022/07/07 02:43:59;;;;;;;;;;;16.20;99.90;;;;;;5026372;28;20366;-72
2022/07/07 02:46:24;;;;;;;;;;;16.20;99.90;;;;;;5026678;28;19921;-72
2022/07/07 02:48:50;;;;;;;;;;;16.20;99.90;;;;;;5007424;28;19971;-72
2022/07/07 02:51:15;;;;;;;;;;;16.20;99.90;;;;;;5004218;28;19965;-73
2022/07/07 02:53:41;;;;;;;;;;;16.20;99.90;;;;;;5025152;28;19917;-73
2022/07/07 02:56:06;;;;;;;;;;;16.20;99.90;;;;;;5008625;28;19931;-72
2022/07/07 02:58:32;;;;;;;;;;;16.20;99.90;;;;;;4986692;28;19918;-72
2022/07/07 03:00:57;;;;;;;;;;;16.20;99.90;;;;;;5008495;28;19917;-72
2022/07/07 03:03:23;;;;;;;;;;;16.20;99.90;;;;;;5008331;28;19971;-72
2022/07/07 03:05:49;;;;;;;;;;;16.20;99.90;;;;;;5024907;28;20007;-73
2022/07/07 03:08:14;;;;;;;;;;;16.20;99.90;;;;;;5007831;28;19917;-72
2022/07/07 03:10:41;;;;;;;;;;;16.20;99.90;;;;;;5008230;28;20362;-73
2022/07/07 03:13:06;;;;;;;;;;;16.20;99.90;;;;;;5020650;28;20044;-73
2022/07/07 03:15:32;;;;;;;;;;;16.20;99.90;;;;;;4997898;28;20464;-72
2022/07/07 03:17:57;;;;;;;;;;;16.20;99.90;;;;;;5019920;28;19927;-72
2022/07/07 03:20:23;;;;;;;;;;;16.10;99.90;;;;;;5026280;28;20161;-72
2022/07/07 03:22:48;;;;;;;;;;;16.10;99.90;;;;;;5026031;28;20318;-72
2022/07/07 03:25:14;;;;;;;;;;;16.10;99.90;;;;;;5022643;28;20426;-72
2022/07/07 03:27:40;;;;;;;;;;;16.10;99.90;;;;;;5007841;28;19917;-73
2022/07/07 03:30:06;;;;;;;;;;;16.10;99.90;;;;;;5045997;28;20307;-73
2022/07/07 03:32:32;;;;;;;;;;;16.10;99.90;;;;;;5045995;28;19921;-73
2022/07/07 03:34:57;;;;;;;;;;;16.10;99.90;;;;;;5019477;28;20187;-73
2022/07/07 03:37:24;;;;;;;;;;;16.10;99.90;;;;;;5043261;28;19921;-73
2022/07/07 03:39:49;;;;;;;;;;;16.10;99.90;;;;;;5049452;28;19917;-73
2022/07/07 03:42:15;;;;;;;;;;;16.10;99.90;;;;;;5040319;28;20385;-73
2022/07/07 03:44:40;;;;;;;;;;;16.00;99.90;;;;;;5029309;28;20196;-73
2022/07/07 03:47:06;;;;;;;;;;;16.00;99.90;;;;;;5030700;28;20121;-73
2022/07/07 03:49:32;;;;;;;;;;;15.90;99.90;;;;;;5011470;28;19968;-73
2022/07/07 03:51:57;;;;;;;;;;;15.90;99.90;;;;;;5014824;28;19964;-74
2022/07/07 03:54:23;;;;;;;;;;;15.80;99.90;;;;;;5023669;28;19995;-73
2022/07/07 03:56:49;;;;;;;;;;;15.70;99.90;;;;;;5049741;28;19988;-74
2022/07/07 03:59:15;;;;;;;;;;;15.60;99.90;;;;;;5017905;28;19921;-73
2022/07/07 04:01:45;;;;;;;;;;;15.60;99.90;;;;;;5009574;28;19917;-73
2022/07/07 04:04:12;;;;;;;;;;;15.60;99.90;;;;;;5007970;28;19940;-73
2022/07/07 04:06:37;;;;;;;;;;;15.50;99.90;;;;;;4994647;28;19924;-73
2022/07/07 04:09:03;;;;;;;;;;;15.50;99.90;;;;;;5005538;28;19917;-74
2022/07/07 04:13:56;;;;;;;;;;;15.50;99.90;;;;;;5046246;28;19920;-67
2022/07/07 04:16:21;;;;;;;;;;;15.50;99.90;;;;;;5035143;28;19947;-68
2022/07/07 04:18:47;;;;;;;;;;;15.50;99.90;;;;;;5027878;28;19945;-67
2022/07/07 04:21:13;;;;;;;;;;;15.40;99.90;;;;;;5011553;28;19927;-68
2022/07/07 04:23:38;;;;;;;;;;;15.40;99.90;;;;;;5010248;28;19944;-68
2022/07/07 04:26:04;;;;;;;;;;;15.30;99.90;;;;;;5014857;28;19937;-68
2022/07/07 04:28:29;;;;;;;;;;;15.30;99.90;;;;;;5012657;28;20015;-68
2022/07/07 04:30:55;;;;;;;;;;;15.30;99.90;;;;;;5012521;28;20163;-68
2022/07/07 04:33:21;;;;;;;;;;;15.30;99.90;;;;;;5012658;28;19960;-68
2022/07/07 04:35:46;;;;;;;;;;;15.30;99.90;;;;;;5005472;28;19924;-68
2022/07/07 04:38:13;;;;;;;;;;;15.30;99.90;;;;;;5030318;28;20397;-68
2022/07/07 04:40:39;;;;;;;;;;;15.30;99.90;;;;;;4996219;28;19939;-68
2022/07/07 04:43:04;;;;;;;;;;;15.30;99.90;;;;;;5026885;28;20377;-68
2022/07/07 04:45:30;;;;;;;;;;;15.30;99.90;;;;;;5027605;28;20697;-68
2022/07/07 04:47:55;;;;;;;;;;;15.30;99.90;;;;;;5029892;28;19927;-68
2022/07/07 04:50:21;;;;;;;;;;;15.30;99.90;;;;;;5011646;28;20078;-69
2022/07/07 04:52:46;;;;;;;;;;;15.30;99.90;;;;;;5020883;28;20189;-68
2022/07/07 04:55:12;;;;;;;;;;;15.30;99.90;;;;;;5029622;28;19926;-68
2022/07/07 04:57:37;;;;;;;;;;;15.30;99.90;;;;;;5012332;28;19979;-68
2022/07/07 05:00:03;;;;;;;;;;;15.30;99.90;;;;;;5026174;28;20110;-68
2022/07/07 05:02:28;;;;;;;;;;;15.30;99.90;;;;;;5026771;28;19917;-68
2022/07/07 05:04:54;;;;;;;;;;;15.40;99.90;;;;;;5027894;28;19917;-68
2022/07/07 05:07:20;;;;;;;;;;;15.40;99.90;;;;;;5023104;28;20250;-68
2022/07/07 05:09:45;;;;;;;;;;;15.50;99.90;;;;;;5028906;28;19983;-69
2022/07/07 05:12:11;;;;;;;;;;;15.40;99.90;;;;;;5006496;28;19917;-68
2022/07/07 05:14:36;;;;;;;;;;;15.40;99.90;;;;;;5016972;28;20361;-68
2022/07/07 05:17:02;;;;;;;;;;;15.40;99.90;;;;;;5028794;28;20408;-68
2022/07/07 05:19:28;;;;;;;;;;;15.40;99.90;;;;;;5011867;28;20015;-68
2022/07/07 05:21:53;;;;;;;;;;;15.40;99.90;;;;;;5012178;28;20289;-68
2022/07/07 05:24:19;;;;;;;;;;;15.40;99.90;;;;;;5023973;28;19947;-68
2022/07/07 05:26:45;;;;;;;;;;;15.40;99.90;;;;;;5031445;28;20164;-68
2022/07/07 05:29:11;;;;;;;;;;;15.40;99.90;;;;;;5031746;28;20054;-68
2022/07/07 05:31:37;;;;;;;;;;;15.40;99.90;;;;;;5027406;28;19999;-68
2022/07/07 05:34:02;;;;;;;;;;;15.40;99.90;;;;;;5029402;28;20020;-68
2022/07/07 05:36:28;;;;;;;;;;;15.40;99.90;;;;;;5029097;28;19928;-69
2022/07/07 05:38:53;;;;;;;;;;;15.50;99.90;;;;;;5021878;28;19946;-68
2022/07/07 05:41:19;;;;;;;;;;;15.50;99.90;;;;;;5029542;28;19917;-69
2022/07/07 05:43:44;;;;;;;;;;;15.50;99.90;;;;;;5028757;28;19917;-68
2022/07/07 05:46:10;;;;;;;;;;;15.50;99.90;;;;;;5024950;28;20012;-68
2022/07/07 05:48:36;;;;;;;;;;;15.60;99.90;;;;;;5026513;28;19917;-68
2022/07/07 05:51:02;;;;;;;;;;;15.70;99.90;;;;;;5028297;28;19916;-68
2022/07/07 05:53:27;;;;;;;;;;;15.80;99.90;;;;;;5027219;28;20015;-68
2022/07/07 05:55:53;;;;;;;;;;;15.80;99.90;;;;;;5021256;28;19947;-68
2022/07/07 05:58:18;;;;;;;;;;;15.80;99.90;;;;;;5029162;28;20427;-68
2022/07/07 06:00:44;;;;;;;;;;;15.80;99.90;;;;;;5028263;28;20405;-68
2022/07/07 06:03:10;;;;;;;;;;;15.70;99.90;;;;;;5026995;28;20358;-68
2022/07/07 06:05:36;;;;;;;;;;;15.70;99.90;;;;;;5026809;28;19917;-68
2022/07/07 06:08:01;;;;;;;;;;;15.70;99.90;;;;;;5010442;28;19975;-68
2022/07/07 06:10:27;;;;;;;;;;;15.80;99.90;;;;;;5028986;28;19976;-68
2022/07/07 06:12:52;;;;;;;;;;;15.80;99.90;;;;;;5013585;28;20423;-68
2022/07/07 06:15:20;;;;;;;;;;;15.80;99.90;;;;;;5024066;28;19939;-68
2022/07/07 06:17:46;;;;;;;;;;;15.90;99.90;;;;;;5028062;28;19922;-68
2022/07/07 06:20:12;;;;;;;;;;;16.00;99.90;;;;;;5028228;28;19934;-69
2022/07/07 06:22:37;;;;;;;;;;;16.00;99.90;;;;;;5026784;28;19921;-69
2022/07/07 06:25:03;;;;;;;;;;;16.00;99.90;;;;;;5020989;28;19923;-69
2022/07/07 06:27:29;;;;;;;;;;;16.00;99.90;;;;;;5028702;28;19979;-69
2022/07/07 06:29:57;;;;;;;;;;;15.90;99.90;;;;;;5009042;28;20274;-69
2022/07/07 06:32:23;;;;;;;;;;;15.90;99.90;;;;;;5021080;28;20366;-68
2022/07/07 06:34:48;;;;;;;;;;;15.80;99.90;;;;;;5033507;28;19928;-68
2022/07/07 06:37:14;;;;;;;;;;;15.90;99.90;;;;;;5027529;28;20063;-69
2022/07/07 06:39:39;;;;;;;;;;;15.90;99.90;;;;;;5041611;28;19997;-68
2022/07/07 06:42:05;;;;;;;;;;;16.00;99.90;;;;;;5027850;28;19920;-69
2022/07/07 06:44:31;;;;;;;;;;;16.00;99.90;;;;;;5027977;28;19924;-69
2022/07/07 06:46:58;;;;;;;;;;;16.10;99.90;;;;;;5027741;28;20297;-69
2022/07/07 06:49:24;;;;;;;;;;;16.00;99.90;;;;;;5006308;28;20310;-69
2022/07/07 06:51:50;;;;;;;;;;;16.10;99.90;;;;;;5027307;28;20030;-69
2022/07/07 06:54:15;;;;;;;;;;;16.10;99.90;;;;;;5009855;28;20022;-69
2022/07/07 06:56:41;;;;;;;;;;;16.20;99.90;;;;;;5010514;28;19925;-69
2022/07/07 06:59:06;;;;;;;;;;;16.20;99.90;;;;;;5005604;28;19917;-69
2022/07/07 07:01:32;;;;;;;;;;;16.20;99.90;;;;;;5010185;28;19971;-69
2022/07/07 07:03:57;;;;;;;;;;;16.30;99.90;;;;;;5026135;28;19933;-68
2022/07/07 07:06:23;;;;;;;;;;;16.30;99.90;;;;;;5021268;28;19922;-69
2022/07/07 07:08:48;;;;;;;;;;;16.20;99.90;;;;;;5009432;28;19929;-69
2022/07/07 07:11:14;;;;;;;;;;;16.20;99.90;;;;;;5015113;28;19922;-69
2022/07/07 07:13:40;;;;;;;;;;;16.20;99.90;;;;;;5002422;28;19944;-69
2022/07/07 07:16:05;;;;;;;;;;;16.20;99.90;;;;;;5025319;28;19920;-69
2022/07/07 07:18:31;;;;;;;;;;;16.10;99.90;;;;;;5014027;28;20413;-69
2022/07/07 07:20:57;;;;;;;;;;;16.10;99.90;;;;;;5013804;28;19927;-69
2022/07/07 07:23:24;;;;;;;;;;;16.10;99.90;;;;;;5013995;28;19959;-69
2022/07/07 07:25:50;;;;;;;;;;;16.20;99.90;;;;;;5033734;28;19921;-69
2022/07/07 07:28:15;;;;;;;;;;;16.20;99.90;;;;;;5033647;28;19917;-69
2022/07/07 07:30:41;;;;;;;;;;;16.20;99.90;;;;;;5034280;28;20039;-69
2022/07/07 07:33:06;;;;;;;;;;;16.20;99.90;;;;;;5031501;28;20281;-69
2022/07/07 07:35:32;;;;;;;;;;;16.30;99.90;;;;;;5024638;28;19967;-68
2022/07/07 07:37:57;;;;;;;;;;;16.30;99.90;;;;;;5031674;28;20058;-69
2022/07/07 07:40:23;;;;;;;;;;;16.40;99.90;;;;;;5032189;28;19924;-69
2022/07/07 07:42:49;;;;;;;;;;;16.50;99.90;;;;;;5011588;28;19917;-69
2022/07/07 07:45:14;;;;;;;;;;;16.40;99.90;;;;;;5025099;28;19968;-69
2022/07/07 07:47:44;;;;;;;;;;;16.50;99.90;;;;;;5031776;28;19917;-69
2022/07/07 07:50:12;;;;;;;;;;;16.60;99.90;;;;;;5011194;28;19966;-68
2022/07/07 07:52:38;;;;;;;;;;;16.60;99.90;;;;;;5027033;28;19917;-69
2022/07/07 07:55:04;;;;;;;;;;;16.70;99.90;;;;;;5030815;28;19917;-69
2022/07/07 07:57:30;;;;;;;;;;;16.70;99.90;;;;;;5031989;28;20034;-69
2022/07/07 07:59:55;;;;;;;;;;;16.70;99.90;;;;;;5029406;28;19917;-69
2022/07/07 08:02:21;;;;;;;;;;;16.70;99.90;;;;;;5030461;28;20498;-68
2022/07/07 08:04:49;;;;;;;;;;;16.70;99.90;;;;;;5028599;28;20019;-69
2022/07/07 08:07:15;;;;;;;;;;;16.70;99.90;;;;;;5030810;28;19964;-68
2022/07/07 08:09:40;;;;;;;;;;;16.80;99.90;;;;;;5010208;28;19921;-68
2022/07/07 08:12:06;;;;;;;;;;;16.90;99.90;;;;;;5013204;28;19923;-69
2022/07/07 08:14:32;;;;;;;;;;;16.90;99.90;;;;;;5031450;28;19923;-69
2022/07/07 08:16:57;;;;;;;;;;;16.90;99.90;;;;;;5011765;28;20381;-69
2022/07/07 08:19:23;;;;;;;;;;;16.90;99.90;;;;;;5012166;28;19917;-68
2022/07/07 08:21:50;;;;;;;;;;;16.90;99.90;;;;;;5013531;28;19963;-68
2022/07/07 08:24:16;;;;;;;;;;;16.90;99.90;;;;;;5010915;28;19917;-69
2022/07/07 08:26:42;;;;;;;;;;;17.00;99.90;;;;;;5023613;28;19918;-69
2022/07/07 08:29:07;;;;;;;;;;;17.00;99.90;;;;;;5011374;28;19921;-68
2022/07/07 08:31:32;;;;;;;;;;;17.00;99.90;;;;;;5030571;28;19999;-69
2022/07/07 08:33:58;;;;;;;;;;;17.00;99.90;;;;;;5025866;28;20325;-68
2022/07/07 08:36:24;;;;;;;;;;;17.00;99.90;;;;;;5029510;28;19921;-68
2022/07/07 08:38:49;;;;;;;;;;;17.00;99.90;;;;;;5030331;28;19917;-68
2022/07/07 08:41:16;;;;;;;;;;;17.00;99.90;;;;;;5012517;28;20396;-69
2022/07/07 08:43:41;;;;;;;;;;;17.00;99.90;;;;;;5004842;28;20205;-68
2022/07/07 08:46:08;;;;;;;;;;;16.90;99.90;;;;;;5030228;28;20246;-68
2022/07/07 08:48:34;;;;;;;;;;;17.00;99.90;;;;;;5030440;28;20019;-68
2022/07/07 08:51:00;;;;;;;;;;;17.00;99.90;;;;;;5012021;28;20032;-68
2022/07/07 08:53:27;;;;;;;;;;;17.20;99.90;;;;;;5025462;28;20432;-68
2022/07/07 08:55:54;;;;;;;;;;;17.30;99.90;;;;;;5030421;28;20305;-68
2022/07/07 08:58:21;;;;;;;;;;;17.30;99.90;;;;;;5029795;28;19928;-68
2022/07/07 09:00:47;;;;;;;;;;;17.30;99.90;;;;;;5029830;28;19917;-69
2022/07/07 09:03:13;;;;;;;;;;;17.30;99.90;;;;;;5024362;28;19925;-69
2022/07/07 09:05:39;;;;;;;;;;;17.20;99.90;;;;;;5028449;28;19917;-69
2022/07/07 09:08:17;;;;;;;;;;;17.20;99.90;;;;;;5020690;28;19921;-68
2022/07/07 09:10:44;;;;;;;;;;;17.20;99.90;;;;;;5019289;28;19974;-68
2022/07/07 09:13:29;;;;;;;;;;;17.30;99.90;;;;;;5003179;28;19921;-68
2022/07/07 09:15:56;;;;;;;;;;;17.40;99.90;;;;;;5020968;28;19917;-68
2022/07/07 09:18:28;;;;;;;;;;;17.50;99.90;;;;;;5024917;28;20276;-69
2022/07/07 09:20:54;;;;;;;;;;;17.60;99.90;;;;;;5026954;28;19923;-68
2022/07/07 09:23:19;;;;;;;;;;;17.80;99.90;;;;;;5029794;28;20358;-68
2022/07/07 09:25:45;;;;;;;;;;;18.00;99.90;;;;;;5028799;28;19982;-68
2022/07/07 09:28:10;;;;;;;;;;;17.90;99.90;;;;;;5026270;28;19924;-69
2022/07/07 09:30:40;;;;;;;;;;;17.80;99.90;;;;;;5011498;28;19917;-69
2022/07/07 09:33:07;;;;;;;;;;;17.70;99.90;;;;;;5028776;28;20008;-68
2022/07/07 09:38:22;;;;;;;;;;;17.70;99.90;;;;;;5010500;28;20020;-68
2022/07/07 09:40:51;;;;;;;;;;;17.70;99.90;;;;;;5012578;28;20273;-68
2022/07/07 09:43:18;;;;;;;;;;;17.60;99.90;;;;;;5011087;28;19917;-68
2022/07/07 09:45:46;;;;;;;;;;;17.50;99.90;;;;;;5008954;28;19924;-69
2022/07/07 09:48:12;;;;;;;;;;;17.50;99.90;;;;;;5026960;28;19928;-69
2022/07/07 09:50:38;;;;;;;;;;;17.40;99.90;;;;;;5023944;28;19918;-68
2022/07/07 09:53:09;;;;;;;;;;;17.30;99.90;;;;;;5028369;28;19971;-68
2022/07/07 09:55:35;;;;;;;;;;;17.20;99.90;;;;;;5023531;28;19924;-68
2022/07/07 09:58:00;;;;;;;;;;;17.10;99.90;;;;;;5029135;28;20008;-69
2022/07/07 10:00:26;;;;;;;;;;;17.10;99.90;;;;;;5011445;28;19943;-69
2022/07/07 10:02:51;;;;;;;;;;;17.10;99.90;;;;;;5026161;28;19927;-69
2022/07/07 10:05:17;;;;;;;;;;;17.10;99.90;;;;;;5010667;28;19917;-69
2022/07/07 10:07:46;;;;;;;;;;;17.20;99.90;;;;;;4990634;28;19928;-69
2022/07/07 10:10:12;;;;;;;;;;;17.30;99.90;;;;;;5007822;28;19921;-69
2022/07/07 10:12:49;;;;;;;;;;;17.30;99.90;;;;;;5097223;23;19990;-71
2022/07/07 10:15:14;;;;;;;;;;;17.20;99.90;;;;;;5035300;28;19921;-70
2022/07/07 10:17:41;;;;;;;;;;;17.00;99.90;;;;;;5011513;28;20170;-70
2022/07/07 10:20:07;;;;;;;;;;;17.00;99.90;;;;;;5010516;28;20008;-70
2022/07/07 10:22:34;;;;;;;;;;;16.90;99.90;;;;;;5023218;28;19981;-70
2022/07/07 10:25:00;;;;;;;;;;;16.90;99.90;;;;;;4993109;28;20007;-70
2022/07/07 10:27:26;;;;;;;;;;;16.90;99.90;;;;;;5027550;28;19921;-70
2022/07/07 10:29:59;;;;;;;;;;;16.80;99.90;;;;;;5030984;28;20369;-70
2022/07/07 10:32:24;;;;;;;;;;;16.80;99.90;;;;;;5027971;28;20301;-71
2022/07/07 10:34:51;;;;;;;;;;;16.90;99.90;;;;;;5008495;28;19993;-71
2022/07/07 10:37:17;;;;;;;;;;;17.00;99.90;;;;;;5026852;28;19921;-70
2022/07/07 10:39:44;;;;;;;;;;;17.00;99.90;;;;;;5025576;28;19917;-70
2022/07/07 10:42:33;;;;;;;;;;;17.00;99.90;;;;;;5008958;28;19921;-70
2022/07/07 10:44:59;;;;;;;;;;;17.00;99.90;;;;;;4981374;28;19992;-70
2022/07/07 10:47:25;;;;;;;;;;;17.00;99.90;;;;;;5000856;28;19917;-70
2022/07/07 10:49:51;;;;;;;;;;;17.00;99.90;;;;;;5026770;28;20399;-70
2022/07/07 10:52:18;;;;;;;;;;;17.00;99.90;;;;;;5009352;28;19955;-70
2022/07/07 10:54:43;;;;;;;;;;;16.90;99.90;;;;;;5025495;28;20156;-70
2022/07/07 10:57:10;;;;;;;;;;;17.00;99.90;;;;;;5009202;28;19982;-70
2022/07/07 10:59:56;;;;;;;;;;;16.90;99.90;;;;;;5026715;28;19917;-69
2022/07/07 11:02:34;;;;;;;;;;;16.90;99.90;;;;;;5009061;28;20317;-70
2022/07/07 11:05:01;;;;;;;;;;;16.90;99.90;;;;;;5003261;28;20431;-69
2022/07/07 11:07:28;;;;;;;;;;;16.90;99.90;;;;;;4992889;28;19982;-70
2022/07/07 11:09:55;;;;;;;;;;;16.90;99.90;;;;;;5008409;28;19923;-71
2022/07/07 11:12:37;;;;;;;;;;;17.00;99.90;;;;;;5019223;28;20028;-71
2022/07/07 11:15:15;;;;;;;;;;;17.00;99.90;;;;;;5001785;28;19983;-70
2022/07/07 11:17:44;;;;;;;;;;;17.10;99.90;;;;;;5007411;28;20147;-70
2022/07/07 11:20:14;;;;;;;;;;;17.20;99.90;;;;;;5019839;28;19979;-70
2022/07/07 11:22:43;;;;;;;;;;;17.20;99.90;;;;;;5005929;28;20026;-70
2022/07/07 11:25:10;;;;;;;;;;;17.20;99.90;;;;;;4992950;28;20362;-70
2022/07/07 11:27:36;;;;;;;;;;;17.10;99.90;;;;;;5027494;28;19936;-70
2022/07/07 11:30:03;;;;;;;;;;;17.30;99.90;;;;;;4995252;28;20094;-70
2022/07/07 11:32:39;;;;;;;;;;;17.30;99.90;;;;;;5010212;28;19951;-70
2022/07/07 11:35:08;;;;;;;;;;;17.40;99.90;;;;;;5009660;28;19917;-71
2022/07/07 11:37:37;;;;;;;;;;;17.40;99.90;;;;;;5004780;28;20396;-70
2022/07/07 11:40:03;;;;;;;;;;;17.50;99.90;;;;;;5026417;28;20400;-71
2022/07/07 11:42:35;;;;;;;;;;;17.40;99.90;;;;;;5008902;28;20382;-71
2022/07/07 11:45:00;;;;;;;;;;;17.40;99.90;;;;;;5004609;28;20552;-70
2022/07/07 11:47:26;;;;;;;;;;;17.50;99.90;;;;;;5021559;28;19917;-70
2022/07/07 11:49:52;;;;;;;;;;;17.40;99.90;;;;;;5024689;28;20004;-70
2022/07/07 11:52:21;;;;;;;;;;;17.40;99.90;;;;;;5025426;28;19967;-71
2022/07/07 11:54:48;;;;;;;;;;;17.40;99.90;;;;;;5009908;28;19924;-70
2022/07/07 11:57:39;;;;;;;;;;;17.30;99.90;;;;;;5026243;28;19987;-70
2022/07/07 12:00:15;;;;;;;;;;;17.40;99.90;;;;;;5026393;28;19982;-70
2022/07/07 12:02:41;;;;;;;;;;;17.20;99.90;;;;;;4993116;28;20302;-70
2022/07/07 12:05:07;;;;;;;;;;;17.20;99.90;;;;;;5011092;28;19921;-70
2022/07/07 12:07:33;;;;;;;;;;;17.20;99.90;;;;;;5011195;28;19921;-71
2022/07/07 12:09:58;;;;;;;;;;;17.10;99.90;;;;;;5011421;28;20000;-72
2022/07/07 12:12:24;;;;;;;;;;;17.10;99.90;;;;;;5009544;28;19916;-71
2022/07/07 12:14:50;;;;;;;;;;;17.10;99.90;;;;;;5011073;28;20313;-71
2022/07/07 12:17:34;;;;;;;;;;;17.10;99.90;;;;;;5028980;28;19944;-70
2022/07/07 12:20:00;;;;;;;;;;;17.00;99.90;;;;;;5023578;28;20023;-71
2022/07/07 12:22:51;;;;;;;;;;;16.90;99.90;;;;;;5028956;28;20008;-71
2022/07/07 12:25:17;;;;;;;;;;;17.00;99.90;;;;;;5025186;28;19917;-71
2022/07/07 12:27:52;;;;;;;;;;;17.00;99.90;;;;;;5028743;28;19924;-71
2022/07/07 12:30:17;;;;;;;;;;;17.00;99.90;;;;;;5023919;28;19921;-71
2022/07/07 12:32:46;;;;;;;;;;;17.10;99.90;;;;;;5010846;28;19917;-70
2022/07/07 12:35:30;;;;;;;;;;;17.00;99.90;;;;;;5009999;28;20032;-71
2022/07/07 12:37:56;;;;;;;;;;;17.00;99.90;;;;;;5008280;28;20424;-70
2022/07/07 12:40:22;;;;;;;;;;;17.00;99.90;;;;;;5028766;28;19952;-71
2022/07/07 12:42:48;;;;;;;;;;;17.10;99.90;;;;;;5029177;28;19916;-71
2022/07/07 12:45:18;;;;;;;;;;;17.10;99.90;;;;;;5026773;28;19916;-71
2022/07/07 12:47:48;;;;;;;;;;;17.10;99.90;;;;;;5009892;28;19917;-70
2022/07/07 12:50:14;;;;;;;;;;;17.10;99.90;;;;;;5026073;28;19921;-71
2022/07/07 12:52:39;;;;;;;;;;;17.10;99.90;;;;;;5025504;28;19921;-71
2022/07/07 12:55:09;;;;;;;;;;;17.10;99.90;;;;;;5010411;28;19920;-71
2022/07/07 12:57:34;;;;;;;;;;;17.20;99.90;;;;;;5028355;28;20120;-71
2022/07/07 13:00:00;;;;;;;;;;;17.30;99.90;;;;;;5028831;28;19921;-71
2022/07/07 13:02:25;;;;;;;;;;;17.30;99.90;;;;;;5009005;28;19917;-70
2022/07/07 13:04:51;;;;;;;;;;;17.30;99.90;;;;;;5025911;28;20011;-70
2022/07/07 13:07:17;;;;;;;;;;;17.30;99.90;;;;;;5010610;28;19974;-71
2022/07/07 13:09:42;;;;;;;;;;;17.30;99.90;;;;;;5027753;28;20059;-71
2022/07/07 13:12:11;;;;;;;;;;;17.30;99.90;;;;;;5027047;28;19971;-70
2022/07/07 13:14:37;;;;;;;;;;;17.30;99.90;;;;;;5009410;28;20291;-71
2022/07/07 13:17:04;;;;;;;;;;;17.20;99.90;;;;;;5028900;28;20004;-71
2022/07/07 13:19:29;;;;;;;;;;;17.20;99.90;;;;;;5019786;28;19937;-71
2022/07/07 13:21:55;;;;;;;;;;;17.30;99.90;;;;;;5009947;28;20377;-70
2022/07/07 13:24:20;;;;;;;;;;;17.30;99.90;;;;;;5026771;28;19917;-70
2022/07/07 13:26:47;;;;;;;;;;;17.30;99.90;;;;;;5028064;28;20341;-71
2022/07/07 13:29:17;;;;;;;;;;;17.30;99.90;;;;;;5007166;28;20342;-71
2022/07/07 13:31:45;;;;;;;;;;;17.40;99.90;;;;;;5027940;28;19917;-71
2022/07/07 13:34:11;;;;;;;;;;;17.50;99.90;;;;;;5010016;28;19917;-70
2022/07/07 13:36:37;;;;;;;;;;;17.60;99.90;;;;;;5007195;28;20336;-71
2022/07/07 13:39:03;;;;;;;;;;;17.60;99.90;;;;;;5027658;28;19917;-71
2022/07/07 13:41:29;;;;;;;;;;;17.70;99.90;;;;;;5010386;28;19917;-71
2022/07/07 13:43:55;;;;;;;;;;;17.70;99.90;;;;;;5027318;28;20253;-71
2022/07/07 13:46:20;;;;;;;;;;;17.60;99.90;;;;;;5027049;28;19924;-71
2022/07/07 13:48:46;;;;;;;;;;;17.60;99.90;;;;;;5025772;28;19933;-71
2022/07/07 13:51:11;;;;;;;;;;;17.50;99.90;;;;;;5016199;28;20421;-71
2022/07/07 13:53:37;;;;;;;;;;;17.50;99.90;;;;;;5025941;28;19932;-71
2022/07/07 13:56:02;;;;;;;;;;;17.60;99.90;;;;;;5009495;28;19917;-71
2022/07/07 13:58:28;;;;;;;;;;;17.60;99.90;;;;;;5027779;28;19976;-70
2022/07/07 14:00:53;;;;;;;;;;;17.70;99.90;;;;;;5004373;28;19917;-70
2022/07/07 14:03:19;;;;;;;;;;;17.70;99.90;;;;;;5027067;28;19923;-72
2022/07/07 14:05:45;;;;;;;;;;;17.70;99.90;;;;;;5026021;28;19924;-70
2022/07/07 14:08:10;;;;;;;;;;;17.60;99.90;;;;;;5027279;28;19978;-71
2022/07/07 14:10:36;;;;;;;;;;;17.80;99.90;;;;;;5008642;28;20080;-71
2022/07/07 14:13:01;;;;;;;;;;;17.90;99.90;;;;;;5025772;28;19924;-70
2022/07/07 14:15:28;;;;;;;;;;;18.00;99.90;;;;;;5027072;28;19917;-70
2022/07/07 14:17:53;;;;;;;;;;;18.00;99.90;;;;;;5024905;28;19976;-71